createdAt,value
2023-05-07T00:02:20.360Z,100658.05
2023-05-07T00:04:47.503Z,100651.69
2023-05-07T00:07:14.517Z,100648.73
2023-05-07T00:09:41.525Z,100648.60
2023-05-07T00:12:08.640Z,100648.13
2023-05-07T00:14:35.577Z,100640.59
2023-05-07T00:17:02.458Z,100638.25
2023-05-07T00:19:29.434Z,100639.65
2023-05-07T03:01:19.238Z,100724.66
2023-05-07T03:03:52.485Z,100724.23
2023-05-07T03:06:19.836Z,100729.42
2023-05-07T03:08:46.941Z,100730.34
2023-05-07T03:11:14.164Z,100734.40
2023-05-07T03:13:41.097Z,100733.67
2023-05-07T03:16:08.225Z,100742.64
2023-05-07T03:18:35.485Z,100740.61
2023-05-07T03:21:02.463Z,100750.77
2023-05-07T03:23:29.410Z,100752.16
2023-05-07T03:25:56.431Z,100756.09
2023-05-07T03:28:23.476Z,100761.57
2023-05-07T03:30:57.148Z,100765.02
2023-05-07T03:33:24.162Z,100758.94
2023-05-07T03:35:51.219Z,100755.38
2023-05-07T03:38:21.553Z,100763.08
2023-05-07T03:40:48.733Z,100768.68
2023-05-07T03:43:15.792Z,100773.58
2023-05-07T03:45:46.683Z,100771.85
2023-05-07T03:48:16.801Z,100770.48
2023-05-07T03:50:43.814Z,100772.98
2023-05-07T03:53:11.335Z,100772.67
2023-05-07T03:55:39.865Z,100775.09
2023-05-07T03:58:07.414Z,100778.89
2023-05-07T04:00:39.180Z,100776.44
2023-05-07T04:03:11.242Z,100773.67
2023-05-07T04:05:38.251Z,100773.72
2023-05-07T04:08:06.537Z,100769.36
2023-05-07T04:10:38.430Z,100771.00
2023-05-07T04:13:08.908Z,100771.66
2023-05-07T04:15:36.908Z,100771.95
2023-05-07T04:18:05.271Z,100767.51
2023-05-07T04:20:35.722Z,100765.88
2023-05-07T04:23:03.109Z,100767.55
2023-05-07T04:25:30.510Z,100766.29
2023-05-07T04:28:17.734Z,100762.65
2023-05-07T04:30:45.083Z,100770.83
2023-05-07T04:33:12.955Z,100773.74
2023-05-07T04:35:40.796Z,100776.06
2023-05-07T04:38:07.759Z,100774.61
2023-05-07T04:40:40.132Z,100771.52
2023-05-07T04:43:08.559Z,100775.57
2023-05-07T04:45:41.747Z,100777.55
2023-05-07T04:48:10.936Z,100772.21
2023-05-07T04:50:39.598Z,100773.73
2023-05-07T04:53:07.643Z,100768.67
2023-05-07T04:55:35.337Z,100770.22
2023-05-07T04:58:03.091Z,100753.48
2023-05-07T05:00:31.767Z,100760.30
2023-05-07T05:02:59.490Z,100758.06
2023-05-07T05:05:26.789Z,100765.09
2023-05-07T05:07:54.079Z,100762.63
2023-05-07T05:10:24.490Z,100752.60
2023-05-07T05:12:52.649Z,100750.59
2023-05-07T05:15:20.482Z,100758.61
2023-05-07T05:17:47.571Z,100758.92
2023-05-07T05:20:15.392Z,100768.09
2023-05-07T05:22:43.207Z,100774.11
2023-05-07T05:25:10.695Z,100777.83
2023-05-07T05:27:37.750Z,100775.39
2023-05-07T05:30:05.421Z,100784.58
2023-05-07T05:32:34.784Z,100783.02
2023-05-07T05:35:02.130Z,100776.73
2023-05-07T05:37:31.313Z,100776.56
2023-05-07T05:39:59.505Z,100768.84
2023-05-07T05:42:27.062Z,100771.06
2023-05-07T05:44:55.332Z,100778.59
2023-05-07T05:47:22.968Z,100776.02
2023-05-07T05:49:50.169Z,100772.20
2023-05-07T05:52:18.248Z,100772.98
2023-05-07T05:54:46.462Z,100767.10
2023-05-07T05:57:13.669Z,100766.16
2023-05-07T05:59:40.724Z,100773.09
2023-05-07T06:02:07.902Z,100775.46
2023-05-07T06:04:35.290Z,100770.92
2023-05-07T06:07:03.342Z,100778.24
2023-05-07T06:09:30.879Z,100784.23
2023-05-07T06:12:00.610Z,100789.88
2023-05-07T06:14:32.913Z,100780.59
2023-05-07T06:16:59.831Z,100775.05
2023-05-07T06:19:27.795Z,100783.12
2023-05-07T06:21:55.103Z,100784.85
2023-05-07T06:24:23.712Z,100776.81
2023-05-07T06:26:50.637Z,100785.38
2023-05-07T06:29:17.855Z,100782.77
2023-05-07T06:31:45.037Z,100787.52
2023-05-07T06:34:15.170Z,100789.20
2023-05-07T06:36:42.364Z,100797.31
2023-05-07T06:39:29.637Z,100790.36
2023-05-07T06:41:56.620Z,100796.27
2023-05-07T06:44:29.165Z,100800.36
2023-05-07T06:47:06.446Z,100794.33
2023-05-07T06:49:34.328Z,100791.14
2023-05-07T06:52:01.466Z,100791.46
2023-05-07T06:54:30.164Z,100789.92
2023-05-07T06:56:57.099Z,100796.86
2023-05-07T06:59:25.939Z,100797.16
2023-05-07T07:01:53.351Z,100802.48
2023-05-07T07:04:20.714Z,100797.13
2023-05-07T07:06:53.937Z,100793.73
2023-05-07T07:09:23.311Z,100799.12
2023-05-07T07:11:52.037Z,100794.17
2023-05-07T07:14:20.030Z,100784.20
2023-05-07T07:16:49.778Z,100784.34
2023-05-07T07:19:17.968Z,100780.94
2023-05-07T07:21:46.025Z,100785.71
2023-05-07T07:24:14.618Z,100776.20
2023-05-07T07:26:41.502Z,100772.05
2023-05-07T07:29:08.633Z,100768.18
2023-05-07T07:31:36.091Z,100771.41
2023-05-07T07:34:03.505Z,100764.52
2023-05-07T07:36:42.461Z,100760.55
2023-05-07T07:39:13.396Z,100758.02
2023-05-07T07:41:40.522Z,100750.66
2023-05-07T07:44:08.698Z,100749.02
2023-05-07T07:46:37.215Z,100760.13
2023-05-07T07:49:04.561Z,100746.69
2023-05-07T07:51:32.459Z,100738.21
2023-05-07T07:54:00.615Z,100745.48
2023-05-07T07:56:28.056Z,100740.90
2023-05-07T07:58:55.033Z,100735.89
2023-05-07T08:01:22.357Z,100727.36
2023-05-07T08:03:49.417Z,100735.16
2023-05-07T08:06:17.152Z,100732.70
2023-05-07T08:08:44.389Z,100725.94
2023-05-07T08:11:11.519Z,100717.09
2023-05-07T08:13:38.689Z,100714.88
2023-05-07T08:16:05.938Z,100715.98
2023-05-07T08:18:34.829Z,100712.36
2023-05-07T08:21:02.763Z,100705.85
2023-05-07T08:23:31.533Z,100703.75
2023-05-07T08:25:58.903Z,100695.48
2023-05-07T08:28:26.255Z,100696.36
2023-05-07T08:30:53.244Z,100691.98
2023-05-07T08:33:20.566Z,100693.04
2023-05-07T08:35:47.754Z,100700.77
2023-05-07T08:38:15.148Z,100698.81
2023-05-07T08:40:42.372Z,100697.05
2023-05-07T08:43:14.016Z,100699.31
2023-05-07T08:45:41.466Z,100703.20
2023-05-07T08:48:17.234Z,100702.60
2023-05-07T08:50:47.492Z,100694.33
2023-05-07T08:53:15.133Z,100704.13
2023-05-07T08:55:42.501Z,100705.88
2023-05-07T08:58:09.543Z,100704.02
2023-05-07T09:00:38.395Z,100710.32
2023-05-07T09:03:05.349Z,100703.04
2023-05-07T09:05:33.346Z,100690.80
2023-05-07T09:08:01.343Z,100696.09
2023-05-07T09:10:28.723Z,100687.05
2023-05-07T09:12:55.762Z,100685.90
2023-05-07T09:15:22.878Z,100680.95
2023-05-07T09:17:50.228Z,100675.42
2023-05-07T09:20:18.730Z,100684.38
2023-05-07T09:22:46.449Z,100677.83
2023-05-07T09:25:16.364Z,100675.34
2023-05-07T09:27:43.627Z,100676.42
2023-05-07T09:30:11.210Z,100680.77
2023-05-07T09:32:40.204Z,100684.36
2023-05-07T09:35:22.843Z,100676.70
2023-05-07T09:37:53.539Z,100668.31
2023-05-07T09:40:24.264Z,100671.82
2023-05-07T09:42:51.706Z,100675.11
2023-05-07T09:45:31.282Z,100667.75
2023-05-07T09:47:59.334Z,100664.52
2023-05-07T09:50:37.871Z,100664.11
2023-05-07T09:53:04.894Z,100657.97
2023-05-07T09:55:32.312Z,100670.27
2023-05-07T09:57:59.419Z,100673.84
2023-05-07T10:00:27.302Z,100668.92
2023-05-07T10:02:58.631Z,100664.80
2023-05-07T10:05:32.994Z,100669.05
2023-05-07T10:08:01.668Z,100672.13
2023-05-07T10:10:29.648Z,100682.11
2023-05-07T10:12:57.355Z,100678.89
2023-05-07T10:15:30.139Z,100664.96
2023-05-07T10:17:57.695Z,100671.38
2023-05-07T10:20:25.556Z,100672.59
2023-05-07T10:22:54.440Z,100678.42
2023-05-07T10:25:27.559Z,100664.41
2023-05-07T10:27:55.035Z,100663.73
2023-05-07T10:30:36.069Z,100658.91
2023-05-07T10:33:07.278Z,100662.19
2023-05-07T10:35:42.968Z,100667.73
2023-05-07T10:38:10.457Z,100664.56
2023-05-07T10:40:39.347Z,100663.63
2023-05-07T10:43:10.208Z,100668.92
2023-05-07T10:45:45.441Z,100668.98
2023-05-07T10:48:28.809Z,100667.84
2023-05-07T10:51:22.799Z,100662.95
2023-05-07T10:54:13.420Z,100657.90
2023-05-07T10:56:45.628Z,100661.72
2023-05-07T10:59:22.215Z,100657.70
2023-05-07T11:01:57.255Z,100659.76
2023-05-07T11:04:36.019Z,100655.70
2023-05-07T11:07:09.732Z,100655.60
2023-05-07T11:09:52.703Z,100643.31
2023-05-07T11:12:37.827Z,100645.98
2023-05-07T11:15:11.571Z,100648.71
2023-05-07T11:18:02.424Z,100651.45
2023-05-07T11:20:48.120Z,100642.79
2023-05-07T11:23:33.462Z,100635.57
2023-05-07T11:26:09.545Z,100642.54
2023-05-07T11:28:43.521Z,100643.52
2023-05-07T11:31:11.364Z,100641.91
2023-05-07T11:33:38.741Z,100633.71
2023-05-07T11:36:08.404Z,100635.60
2023-05-07T11:38:38.707Z,100632.56
2023-05-07T11:41:08.429Z,100631.83
2023-05-07T11:43:37.112Z,100630.90
2023-05-07T11:46:10.873Z,100639.37
2023-05-07T11:48:38.319Z,100628.72
2023-05-07T11:51:06.850Z,100629.21
2023-05-07T11:53:38.951Z,100621.98
2023-05-07T11:56:09.220Z,100610.58
2023-05-07T11:58:36.396Z,100603.14
2023-05-07T12:01:03.449Z,100613.62
2023-05-07T12:03:32.336Z,100617.61
2023-05-07T12:06:03.245Z,100608.95
2023-05-07T12:08:30.496Z,100611.91
2023-05-07T12:10:57.366Z,100610.82
2023-05-07T12:13:25.993Z,100626.07
2023-05-07T12:15:53.689Z,100616.73
2023-05-07T12:18:21.228Z,100609.85
2023-05-07T12:20:48.250Z,100604.45
2023-05-07T12:23:15.415Z,100600.92
2023-05-07T12:25:47.700Z,100595.37
2023-05-07T12:28:16.552Z,100602.85
2023-05-07T12:30:44.041Z,100603.54
2023-05-07T12:33:11.350Z,100598.89
2023-05-07T12:35:42.264Z,100599.21
2023-05-07T12:38:10.199Z,100595.50
2023-05-07T12:40:38.148Z,100592.40
2023-05-07T12:43:05.163Z,100589.87
2023-05-07T12:45:32.606Z,100591.19
2023-05-07T12:48:03.007Z,100588.32
2023-05-07T12:50:34.246Z,100588.58
2023-05-07T12:53:01.973Z,100579.08
2023-05-07T12:55:32.718Z,100575.80
2023-05-07T12:58:02.268Z,100579.55
2023-05-07T13:00:39.020Z,100585.61
2023-05-07T13:03:06.193Z,100582.27
2023-05-07T13:05:33.427Z,100583.02
2023-05-07T13:08:00.592Z,100580.23
2023-05-07T13:10:27.926Z,100574.98
2023-05-07T13:12:55.110Z,100566.86
2023-05-07T13:15:22.752Z,100564.86
2023-05-07T13:17:49.764Z,100565.20
2023-05-07T13:20:16.761Z,100565.30
2023-05-07T13:22:43.881Z,100557.41
2023-05-07T13:25:11.137Z,100563.17
2023-05-07T13:27:38.397Z,100557.46
2023-05-07T13:30:06.567Z,100555.48
2023-05-07T13:32:34.614Z,100552.55
2023-05-07T13:35:02.006Z,100557.17
2023-05-07T13:37:29.465Z,100553.02
2023-05-07T13:39:56.443Z,100553.54
2023-05-07T13:42:23.554Z,100546.42
2023-05-07T13:44:50.916Z,100545.51
2023-05-07T13:47:22.525Z,100550.87
2023-05-07T13:49:52.709Z,100549.27
2023-05-07T13:52:20.137Z,100556.08
2023-05-07T13:54:47.370Z,100544.29
2023-05-07T13:57:14.301Z,100545.31
2023-05-07T13:59:42.022Z,100550.54
2023-05-07T14:02:10.156Z,100546.42
2023-05-07T14:04:38.723Z,100557.66
2023-05-07T14:07:06.222Z,100548.41
2023-05-07T14:09:33.567Z,100548.58
2023-05-07T14:12:01.289Z,100546.29
2023-05-07T14:14:28.899Z,100544.89
2023-05-07T14:16:55.774Z,100548.69
2023-05-07T14:19:23.907Z,100551.54
2023-05-07T14:21:50.879Z,100551.95
2023-05-07T14:24:30.752Z,100558.48
2023-05-07T14:27:04.402Z,100551.81
2023-05-07T14:29:31.424Z,100548.73
2023-05-07T14:31:58.269Z,100542.02
2023-05-07T14:34:25.595Z,100548.25
2023-05-07T14:36:53.300Z,100556.35
2023-05-07T14:39:20.288Z,100553.23
2023-05-07T14:41:47.347Z,100553.83
2023-05-07T14:44:14.338Z,100557.46
2023-05-07T14:46:41.629Z,100553.41
2023-05-07T14:49:17.467Z,100547.73
2023-05-07T14:51:46.146Z,100549.71
2023-05-07T14:54:13.790Z,100546.17
2023-05-07T14:56:41.142Z,100545.58
2023-05-07T14:59:08.478Z,100547.92
2023-05-07T15:01:36.898Z,100547.23
2023-05-07T15:04:07.004Z,100547.54
2023-05-07T15:06:34.502Z,100548.81
2023-05-07T15:09:01.444Z,100557.35
2023-05-07T15:11:28.317Z,100563.92
2023-05-07T15:13:55.207Z,100565.37
2023-05-07T15:28:30.547Z,100577.37
2023-05-07T15:30:58.099Z,100579.48
2023-05-07T15:33:24.869Z,100576.28
2023-05-07T15:35:51.353Z,100574.08
2023-05-07T15:38:17.724Z,100571.38
2023-05-07T15:40:44.958Z,100571.11
2023-05-07T15:43:11.974Z,100571.05
2023-05-07T15:45:42.112Z,100570.53
2023-05-07T15:48:09.523Z,100570.08
2023-05-07T15:50:36.787Z,100572.10
2023-05-07T15:53:04.416Z,100572.84
2023-05-07T15:55:31.851Z,100571.95
2023-05-07T15:57:58.485Z,100572.40
2023-05-07T16:00:28.285Z,100572.63
2023-05-07T16:02:55.921Z,100566.58
2023-05-07T16:05:22.700Z,100571.89
2023-05-07T16:07:49.263Z,100575.55
2023-05-07T16:10:15.682Z,100574.73
2023-05-07T16:12:43.228Z,100578.88
2023-05-07T16:15:10.103Z,100579.30
2023-05-07T16:17:37.089Z,100577.66
2023-05-07T16:20:06.029Z,100581.39
2023-05-07T16:22:32.952Z,100585.52
2023-05-07T16:25:00.228Z,100591.02
2023-05-07T16:27:26.850Z,100596.10
2023-05-07T16:29:53.232Z,100597.44
2023-05-07T16:32:19.752Z,100600.66
2023-05-07T16:34:46.696Z,100611.83
2023-05-07T16:37:15.338Z,100610.15
2023-05-07T16:39:41.683Z,100612.27
2023-05-07T16:42:07.924Z,100614.27
2023-05-07T16:44:34.407Z,100617.23
2023-05-07T16:47:01.183Z,100623.98
2023-05-07T16:49:27.727Z,100628.91
2023-05-07T16:51:54.345Z,100630.33
2023-05-07T16:54:20.879Z,100634.90
2023-05-07T16:56:47.172Z,100638.06
2023-05-07T16:59:13.668Z,100636.33
2023-05-07T17:01:42.256Z,100640.83
2023-05-07T17:04:08.962Z,100644.58
2023-05-07T17:06:36.223Z,100645.80
2023-05-07T17:09:03.016Z,100647.63
2023-05-07T17:11:31.231Z,100651.11
2023-05-07T17:13:57.667Z,100653.54
2023-05-07T17:16:25.649Z,100650.62
2023-05-07T17:18:52.118Z,100658.36
2023-05-07T17:21:18.643Z,100659.23
2023-05-07T17:23:45.108Z,100664.64
2023-05-07T17:26:16.033Z,100663.98
2023-05-07T17:28:42.660Z,100666.65
2023-05-07T17:31:09.181Z,100664.31
2023-05-07T17:33:35.947Z,100669.90
2023-05-07T17:36:02.947Z,100669.98
2023-05-07T17:38:30.908Z,100668.35
2023-05-07T17:40:58.548Z,100670.71
2023-05-07T17:43:25.356Z,100668.77
2023-05-07T17:45:51.953Z,100668.60
2023-05-07T17:48:18.920Z,100668.04
2023-05-07T17:50:45.632Z,100665.81
2023-05-07T17:53:12.269Z,100666.25
2023-05-07T17:55:43.321Z,100665.14
2023-05-07T17:58:10.711Z,100664.63
2023-05-07T18:00:37.523Z,100669.02
2023-05-07T18:03:04.297Z,100665.59
2023-05-07T18:19:33.221Z,100667.27
2023-05-07T18:22:00.505Z,100674.85
2023-05-07T18:24:28.860Z,100671.13
2023-05-07T18:26:56.233Z,100671.55
2023-05-07T18:29:23.565Z,100679.30
2023-05-07T18:31:50.982Z,100674.50
2023-05-07T18:34:18.295Z,100674.52
2023-05-07T18:36:45.419Z,100677.39
2023-05-07T18:39:12.784Z,100678.65
2023-05-07T18:41:39.926Z,100675.70
2023-05-07T18:44:07.625Z,100671.91
2023-05-07T18:46:35.299Z,100675.52
2023-05-07T18:49:02.767Z,100677.73
2023-05-07T18:51:30.057Z,100675.15
2023-05-07T18:53:57.431Z,100672.84
2023-05-07T18:56:24.787Z,100679.09
2023-05-07T18:58:51.919Z,100677.41
2023-05-07T19:01:19.067Z,100674.67
2023-05-07T19:03:46.152Z,100668.45
2023-05-07T19:06:14.247Z,100671.28
2023-05-07T19:08:41.587Z,100672.88
2023-05-07T19:11:09.145Z,100672.44
2023-05-07T19:13:36.767Z,100675.86
2023-05-07T19:16:05.856Z,100672.80
2023-05-07T19:24:33.265Z,100672.12
2023-05-07T19:27:00.758Z,100674.73
2023-05-07T19:29:28.108Z,100670.61
2023-05-07T19:31:55.105Z,100666.61
2023-05-07T19:34:22.184Z,100665.86
2023-05-07T19:36:49.305Z,100672.40
2023-05-07T19:39:17.272Z,100673.27
2023-05-07T19:41:46.217Z,100665.17
2023-05-07T19:44:13.437Z,100667.39
2023-05-07T19:46:44.658Z,100669.36
2023-05-07T19:49:13.112Z,100672.81
2023-05-07T19:51:40.612Z,100670.35
2023-05-07T19:54:07.916Z,100670.30
2023-05-07T19:56:34.856Z,100669.98
2023-05-07T19:59:02.164Z,100667.50
2023-05-07T20:08:21.570Z,100666.34
2023-05-07T20:10:49.441Z,100668.27
2023-05-07T20:13:16.721Z,100670.05
2023-05-07T20:15:44.015Z,100670.55
2023-05-07T20:18:11.407Z,100670.70
2023-05-07T20:20:38.488Z,100672.54
2023-05-07T20:23:05.729Z,100672.32
2023-05-07T20:25:32.659Z,100666.42
2023-05-07T20:28:00.048Z,100667.59
2023-05-07T20:30:28.004Z,100666.08
2023-05-07T20:32:55.304Z,100665.81
2023-05-07T20:35:23.193Z,100670.80
2023-05-07T20:37:50.074Z,100670.40
2023-05-07T20:40:17.357Z,100672.75
2023-05-07T20:42:44.536Z,100669.61
2023-05-07T20:45:12.400Z,100667.25
2023-05-07T20:47:40.247Z,100667.23
2023-05-07T20:50:08.082Z,100668.83
2023-05-07T20:52:36.047Z,100674.84
2023-05-07T20:55:03.194Z,100677.38
2023-05-07T20:57:31.108Z,100678.61
2023-05-07T20:59:58.082Z,100680.79
2023-05-07T21:02:25.230Z,100681.58
2023-05-07T21:04:52.732Z,100683.84
2023-05-07T21:07:19.722Z,100681.04
2023-05-07T21:09:46.759Z,100684.02
2023-05-07T21:12:13.774Z,100678.86
2023-05-07T21:14:41.438Z,100686.56
2023-05-07T21:17:08.812Z,100688.84
2023-05-07T21:19:37.028Z,100693.23
2023-05-07T21:22:04.128Z,100697.36
2023-05-07T21:24:32.361Z,100698.30
2023-05-07T21:27:03.226Z,100700.92
2023-05-07T21:29:31.433Z,100703.70
2023-05-07T21:31:58.482Z,100704.83
2023-05-07T21:34:25.956Z,100703.81
2023-05-07T21:36:53.125Z,100702.81
2023-05-07T21:39:22.918Z,100708.96
2023-05-07T21:41:50.496Z,100706.98
2023-05-07T21:44:17.574Z,100706.20
2023-05-07T21:46:45.073Z,100708.79
2023-05-07T21:49:12.199Z,100708.70
2023-05-07T21:58:26.705Z,100711.30
2023-05-07T22:00:53.037Z,100713.78
2023-05-07T22:03:19.831Z,100717.09
2023-05-07T22:05:48.054Z,100717.08
2023-05-07T22:08:16.632Z,100717.21
2023-05-07T22:10:42.969Z,100723.27
2023-05-07T22:13:09.363Z,100723.88
2023-05-07T22:15:42.370Z,100728.25
2023-05-07T22:18:16.054Z,100727.73
2023-05-07T22:20:42.423Z,100731.08
2023-05-07T22:23:09.039Z,100732.85
2023-05-07T22:25:36.010Z,100734.72
2023-05-07T22:28:02.469Z,100733.14
2023-05-07T22:30:28.972Z,100737.59
2023-05-07T22:32:55.360Z,100737.51
2023-05-07T22:35:21.954Z,100731.95
2023-05-07T22:37:48.272Z,100729.73
2023-05-07T22:40:15.332Z,100731.83
2023-05-07T22:42:41.858Z,100727.17
2023-05-07T22:45:09.778Z,100729.82
2023-05-07T22:47:36.132Z,100733.28
2023-05-07T22:50:04.899Z,100735.16
2023-05-07T22:52:33.696Z,100740.95
2023-05-07T22:55:00.257Z,100745.39
2023-05-07T22:57:26.627Z,100741.94
2023-05-07T22:59:56.149Z,100740.73
2023-05-07T23:02:22.762Z,100743.02
2023-05-07T23:04:49.469Z,100737.84
2023-05-07T23:07:15.855Z,100740.04
2023-05-07T23:09:42.338Z,100742.64
2023-05-07T23:12:09.297Z,100738.33
2023-05-07T23:14:35.719Z,100737.27
2023-05-07T23:17:02.340Z,100739.30
2023-05-07T23:19:29.146Z,100734.54
2023-05-07T23:21:55.697Z,100732.98
2023-05-07T23:24:22.162Z,100736.33
2023-05-07T23:26:48.442Z,100730.02
2023-05-07T23:29:14.926Z,100736.92
2023-05-07T23:31:41.357Z,100735.91
2023-05-07T23:34:07.685Z,100733.23
2023-05-07T23:36:34.045Z,100736.88
2023-05-07T23:39:00.466Z,100737.37
2023-05-07T23:41:26.784Z,100735.81
2023-05-07T23:43:53.072Z,100735.23
2023-05-07T23:46:19.409Z,100738.15
2023-05-07T23:48:45.788Z,100738.93
2023-05-07T23:51:12.043Z,100738.47
2023-05-07T23:53:38.507Z,100738.98
2023-05-07T23:56:05.478Z,100738.61
2023-05-07T23:58:32.733Z,100740.56
